Time;durP1;ratioP1;P1;durP2;ratioP2;P2;SDS_P1;SDS_P2;PMS_P1;PMS_P2;Temp;Humidity;BMP_temperature;BMP_pressure;BME280_temperature;BME280_humidity;BME280_pressure;Samples;Min_cycle;Max_cycle;Signal;HPM_P1;HPM_P2
2021/06/18 00:00:11;;;;;;;7.60;5.82;;;461.10;2380.80;;;;;;5074610;28;20440;-70
2021/06/18 00:02:37;;;;;;;7.07;6.00;;;460.90;2380.80;;;;;;5074521;28;20021;-71
2021/06/18 00:05:06;;;;;;;7.82;5.80;;;460.90;2380.80;;;;;;5074815;28;20024;-71
2021/06/18 00:07:31;;;;;;;7.35;5.72;;;460.90;2380.80;;;;;;5074862;28;20016;-70
2021/06/18 00:09:57;;;;;;;8.50;6.00;;;460.90;2380.80;;;;;;5074585;28;20044;-72
2021/06/18 00:12:23;;;;;;;7.45;5.68;;;461.00;2380.80;;;;;;5074333;28;20027;-74
2021/06/18 00:14:49;;;;;;;8.20;5.57;;;461.00;2380.80;;;;;;5074288;28;20482;-73
2021/06/18 00:17:14;;;;;;;7.95;6.13;;;461.00;2380.80;;;;;;5074344;28;20200;-69
2021/06/18 00:19:40;;;;;;;9.57;5.85;;;461.00;2380.80;;;;;;5067824;28;20029;-71
2021/06/18 00:22:06;;;;;;;8.07;6.10;;;460.80;2380.80;;;;;;5069884;28;20036;-70
2021/06/18 00:24:31;;;;;;;8.32;6.30;;;436.10;2355.20;;;;;;5074112;28;20029;-70
2021/06/18 00:26:57;;;;;;;7.15;5.75;;;436.10;2355.20;;;;;;5074161;28;20024;-70
2021/06/18 00:29:23;;;;;;;8.00;6.30;;;460.80;2380.80;;;;;;5074038;28;20119;-71
2021/06/18 00:31:48;;;;;;;8.70;6.50;;;460.90;2380.80;;;;;;5074073;28;20032;-69
2021/06/18 00:34:14;;;;;;;9.60;6.45;;;460.90;2380.80;;;;;;5074216;28;20082;-69
2021/06/18 00:36:39;;;;;;;7.95;6.15;;;460.90;2380.80;;;;;;5074076;28;20483;-69
2021/06/18 00:39:06;;;;;;;8.63;6.13;;;461.00;2380.80;;;;;;5073866;28;20024;-70
2021/06/18 00:41:32;;;;;;;8.98;6.60;;;461.00;2380.80;;;;;;5073911;28;20029;-70
2021/06/18 00:43:57;;;;;;;8.68;6.55;;;461.10;2380.80;;;;;;5073717;28;20123;-70
2021/06/18 00:46:24;;;;;;;8.68;6.68;;;461.10;2380.80;;;;;;5073883;28;20040;-69
2021/06/18 00:48:50;;;;;;;8.13;6.72;;;461.10;2380.80;;;;;;5073776;28;20025;-70
2021/06/18 00:51:18;;;;;;;9.38;7.10;;;461.10;2380.80;;;;;;5055771;28;20105;-69
2021/06/18 00:53:44;;;;;;;8.40;6.70;;;461.10;2380.80;;;;;;5073765;28;20430;-68
2021/06/18 00:56:10;;;;;;;8.05;6.38;;;461.10;2380.80;;;;;;5073625;28;20016;-69
2021/06/18 00:58:36;;;;;;;7.35;6.10;;;461.10;2380.80;;;;;;5073543;28;20142;-71
2021/06/18 01:01:03;;;;;;;8.30;6.13;;;461.10;2380.80;;;;;;5055502;28;20028;-69
2021/06/18 01:03:29;;;;;;;9.10;6.70;;;461.10;2380.80;;;;;;5073347;28;20063;-72
2021/06/18 01:05:55;;;;;;;8.20;6.68;;;461.10;2380.80;;;;;;5073235;28;20102;-71
2021/06/18 01:08:24;;;;;;;10.68;6.97;;;461.10;2380.80;;;;;;5073490;28;20017;-70
2021/06/18 01:11:05;;;;;;;8.15;6.30;;;461.10;2380.80;;;;;;5073298;28;20056;-71
2021/06/18 01:13:49;;;;;;;9.85;6.35;;;461.10;2380.80;;;;;;5073393;28;20070;-70
2021/06/18 01:16:26;;;;;;;9.48;6.75;;;461.10;2380.80;;;;;;5073149;28;20028;-70
2021/06/18 01:19:25;;;;;;;8.13;6.38;;;461.10;2380.80;;;;;;5073327;28;20032;-69
2021/06/18 01:22:00;;;;;;;8.20;6.50;;;461.10;2380.80;;;;;;5060016;28;20111;-70
2021/06/18 01:25:01;;;;;;;9.30;6.25;;;461.10;2380.80;;;;;;5073021;28;20093;-69
2021/06/18 01:27:40;;;;;;;9.63;6.05;;;461.10;2380.80;;;;;;5073132;28;20033;-70
2021/06/18 01:30:13;;;;;;;8.20;6.65;;;461.10;2380.80;;;;;;5072974;28;20025;-70
2021/06/18 01:32:42;;;;;;;9.90;6.88;;;461.10;2380.80;;;;;;5072984;28;20483;-71
2021/06/18 01:35:13;;;;;;;8.10;6.35;;;461.00;2380.80;;;;;;5073217;28;20071;-71
2021/06/18 01:37:42;;;;;;;9.07;6.75;;;461.00;2380.80;;;;;;5073153;28;20039;-69
2021/06/18 01:40:09;;;;;;;9.68;6.57;;;460.90;2380.80;;;;;;5072914;28;20103;-70
2021/06/18 01:42:39;;;;;;;7.68;5.90;;;460.80;2380.80;;;;;;5072670;28;20475;-70
2021/06/18 01:45:08;;;;;;;8.33;6.10;;;436.00;2355.20;;;;;;5072841;28;20107;-71
2021/06/18 01:47:36;;;;;;;10.13;6.07;;;435.70;2355.20;;;;;;5072713;28;20385;-70
2021/06/18 01:50:04;;;;;;;8.25;6.40;;;435.50;2355.20;;;;;;5072806;28;20024;-71
2021/06/18 01:52:30;;;;;;;8.48;5.93;;;435.40;2355.20;;;;;;5072585;28;20281;-70
2021/06/18 01:54:58;;;;;;;9.68;6.00;;;435.40;2355.20;;;;;;5072719;28;20033;-70
2021/06/18 01:57:25;;;;;;;8.80;6.10;;;435.40;2355.20;;;;;;5072463;28;20403;-70
2021/06/18 01:59:53;;;;;;;8.88;6.13;;;435.30;2355.20;;;;;;5072699;28;20115;-71
2021/06/18 02:02:22;;;;;;;8.52;5.95;;;435.30;2355.20;;;;;;5072598;28;20026;-71
2021/06/18 02:04:48;;;;;;;7.70;5.95;;;435.40;2355.20;;;;;;5072603;28;20478;-69
2021/06/18 02:07:15;;;;;;;7.70;5.53;;;435.30;2355.20;;;;;;5072569;28;20025;-68
2021/06/18 02:09:43;;;;;;;7.57;5.75;;;435.20;2355.20;;;;;;5072535;28;20021;-70
2021/06/18 02:12:10;;;;;;;9.07;5.78;;;410.50;2355.20;;;;;;5063292;28;20039;-70
2021/06/18 02:14:38;;;;;;;8.23;5.88;;;410.30;2355.20;;;;;;5071671;28;20028;-70
2021/06/18 02:17:05;;;;;;;8.57;5.82;;;410.30;2355.20;;;;;;5072348;28;20016;-69
2021/06/18 02:19:34;;;;;;;8.45;5.95;;;410.40;2355.20;;;;;;5072266;28;20024;-70
2021/06/18 02:22:02;;;;;;;8.13;5.78;;;410.50;2355.20;;;;;;5054274;28;20210;-69
2021/06/18 02:24:30;;;;;;;7.82;5.63;;;435.20;2355.20;;;;;;5072076;28;20016;-70
2021/06/18 02:26:57;;;;;;;7.55;5.80;;;435.20;2355.20;;;;;;5065530;28;20044;-78
2021/06/18 02:29:24;;;;;;;7.07;5.68;;;435.30;2355.20;;;;;;5072279;28;20016;-77
2021/06/18 02:31:50;;;;;;;8.40;5.70;;;435.30;2355.20;;;;;;5072198;28;20043;-78
2021/06/18 02:34:15;;;;;;;8.82;5.97;;;435.20;2355.20;;;;;;5072138;28;20114;-73
2021/06/18 02:36:42;;;;;;;11.35;6.30;;;435.20;2355.20;;;;;;5072577;28;20076;-77
2021/06/18 02:39:10;;;;;;;8.32;6.07;;;435.20;2355.20;;;;;;5072138;28;20032;-76
2021/06/18 02:41:37;;;;;;;7.88;6.20;;;410.50;2355.20;;;;;;5072268;28;20028;-72
2021/06/18 02:44:03;;;;;;;9.10;6.50;;;410.30;2355.20;;;;;;5071913;28;20029;-70
2021/06/18 02:46:51;;;;;;;9.15;6.60;;;410.10;2355.20;;;;;;5072547;28;20013;-78
2021/06/18 02:49:24;;;;;;;9.50;6.20;;;410.00;2355.20;;;;;;5071894;28;20029;-77
2021/06/18 02:52:01;;;;;;;8.45;5.80;;;409.90;2355.20;;;;;;5072181;28;20013;-72
2021/06/18 02:54:38;;;;;;;8.27;6.25;;;410.00;2355.20;;;;;;5071992;28;20051;-78
2021/06/18 02:57:08;;;;;;;9.00;6.38;;;409.90;2355.20;;;;;;5072034;28;20025;-75
2021/06/18 02:59:49;;;;;;;10.93;6.20;;;409.80;2355.20;;;;;;5071806;28;20398;-78
2021/06/18 03:02:17;;;;;;;;;;;409.90;2355.20;;;;;;5072403;28;20028;-75
2021/06/18 03:04:45;;;;;;;10.45;6.65;;;409.90;2355.20;;;;;;5071790;28;19912;-75
2021/06/18 03:07:17;;;;;;;9.07;6.70;;;409.80;2355.20;;;;;;5047629;28;20029;-71
2021/06/18 03:09:50;;;;;;;9.18;6.65;;;409.70;2355.20;;;;;;5067741;28;20025;-68
2021/06/18 03:12:17;;;;;;;7.95;5.90;;;384.90;2329.60;;;;;;5071797;28;20013;-73
2021/06/18 03:14:45;;;;;;;8.48;6.15;;;384.90;2329.60;;;;;;5071733;28;20070;-78
2021/06/18 03:17:17;;;;;;;11.13;5.78;;;384.90;2329.60;;;;;;5071659;28;20048;-77
2021/06/18 03:19:47;;;;;;;8.25;6.20;;;409.60;2355.20;;;;;;5071626;28;20102;-77
2021/06/18 03:22:15;;;;;;;8.55;6.05;;;409.60;2355.20;;;;;;5071627;28;20020;-77
2021/06/18 03:24:45;;;;;;;7.97;6.50;;;409.70;2355.20;;;;;;5071818;28;20032;-69
2021/06/18 03:27:12;;;;;;;8.33;6.30;;;409.70;2355.20;;;;;;5074569;28;20008;-73
2021/06/18 03:29:39;;;;;;;9.65;6.20;;;409.60;2355.20;;;;;;5075395;28;20513;-70
2021/06/18 03:32:06;;;;;;;8.48;6.70;;;409.60;2355.20;;;;;;5074954;28;20028;-78
2021/06/18 03:34:32;;;;;;;9.02;6.35;;;409.60;2355.20;;;;;;5075037;28;20390;-75
2021/06/18 03:37:01;;;;;;;10.05;7.03;;;409.60;2355.20;;;;;;5075198;28;20028;-78
2021/06/18 03:39:27;;;;;;;10.73;6.38;;;409.80;2355.20;;;;;;5075275;28;20016;-73
2021/06/18 03:41:53;;;;;;;10.13;6.47;;;409.80;2355.20;;;;;;5074948;28;20021;-78
2021/06/18 03:44:20;;;;;;;8.25;6.30;;;410.00;2355.20;;;;;;5075000;28;20047;-79
2021/06/18 03:46:48;;;;;;;10.90;6.05;;;410.20;2355.20;;;;;;5075140;28;20512;-78
2021/06/18 03:49:15;;;;;;;8.30;5.78;;;410.30;2355.20;;;;;;5074847;28;20012;-78
2021/06/18 03:51:41;;;;;;;10.57;5.72;;;410.40;2355.20;;;;;;5075276;28;20474;-78
2021/06/18 03:54:07;;;;;;;7.72;5.22;;;410.50;2355.20;;;;;;5074804;28;20140;-78
2021/06/18 03:56:35;;;;;;;8.45;4.95;;;435.20;2355.20;;;;;;5074757;28;20153;-78
2021/06/18 03:59:03;;;;;;;6.95;4.88;;;435.30;2355.20;;;;;;5074717;28;20025;-78
2021/06/18 04:01:30;;;;;;;5.82;4.50;;;435.40;2355.20;;;;;;5074861;28;20028;-72
2021/06/18 04:03:59;;;;;;;7.47;4.80;;;435.50;2355.20;;;;;;5074657;28;20155;-75
2021/06/18 04:06:28;;;;;;;6.63;4.60;;;435.60;2355.20;;;;;;5074493;28;20008;-79
2021/06/18 04:08:56;;;;;;;6.50;4.70;;;435.60;2355.20;;;;;;5056670;28;20433;-78
2021/06/18 04:11:22;;;;;;;5.60;4.50;;;435.80;2355.20;;;;;;5074397;28;20052;-79
2021/06/18 04:13:48;;;;;;;6.90;4.95;;;435.90;2355.20;;;;;;5074582;28;20025;-78
2021/06/18 04:16:14;;;;;;;6.72;4.70;;;436.10;2355.20;;;;;;5074312;28;20028;-79
2021/06/18 04:18:44;;;;;;;6.95;5.18;;;460.80;2380.80;;;;;;5074416;28;20020;-78
2021/06/18 04:21:15;;;;;;;9.70;5.32;;;460.90;2380.80;;;;;;5074218;28;20028;-70
2021/06/18 04:23:41;;;;;;;7.40;5.00;;;461.00;2380.80;;;;;;5074642;28;20051;-73
2021/06/18 04:26:07;;;;;;;7.40;4.97;;;461.20;2380.80;;;;;;5074332;28;20467;-70
2021/06/18 04:28:35;;;;;;;7.30;4.50;;;461.30;2380.80;;;;;;5074177;28;20070;-77
2021/06/18 04:31:01;;;;;;;6.63;4.35;;;461.40;2380.80;;;;;;5074173;28;20494;-77
2021/06/18 04:33:27;;;;;;;5.75;4.25;;;461.60;2380.80;;;;;;5073796;28;20032;-77
2021/06/18 04:35:52;;;;;;;5.90;4.38;;;461.60;2380.80;;;;;;5074207;28;20482;-73
2021/06/18 04:38:18;;;;;;;7.63;4.80;;;486.40;2380.80;;;;;;5073556;28;20028;-74
2021/06/18 04:40:44;;;;;;;5.93;4.30;;;486.60;2380.80;;;;;;5073766;28;20028;-77
2021/06/18 04:43:10;;;;;;;5.72;4.38;;;486.80;2380.80;;;;;;5073957;28;20029;-76
2021/06/18 04:45:36;;;;;;;6.80;4.82;;;486.90;2380.80;;;;;;5073768;28;20023;-77
2021/06/18 04:48:02;;;;;;;7.38;5.15;;;487.10;2380.80;;;;;;5073881;28;20521;-72
2021/06/18 04:50:27;;;;;;;6.78;5.43;;;487.20;2380.80;;;;;;5073753;28;20020;-77
2021/06/18 04:52:53;;;;;;;19.98;12.35;;;512.00;2380.80;;;;;;5073707;28;20024;-74
2021/06/18 04:55:19;;;;;;;9.57;7.05;;;512.10;2380.80;;;;;;5073776;28;20070;-73
2021/06/18 04:57:47;;;;;;;15.75;9.98;;;512.00;2380.80;;;;;;5073882;28;20399;-78
2021/06/18 05:00:14;;;;;;;26.05;13.82;;;512.20;2380.80;;;;;;5073649;28;20027;-77
2021/06/18 05:02:40;;;;;;;16.75;12.02;;;512.20;2380.80;;;;;;5073311;28;20125;-71
2021/06/18 05:05:06;;;;;;;10.98;7.28;;;512.30;2380.80;;;;;;5073604;28;20494;-74
2021/06/18 05:07:32;;;;;;;8.20;6.75;;;512.00;2380.80;;;;;;5073358;28;20055;-73
2021/06/18 05:09:58;;;;;;;8.95;6.07;;;512.00;2380.80;;;;;;5073552;28;20052;-75
2021/06/18 05:12:24;;;;;;;8.68;6.07;;;512.10;2380.80;;;;;;5073250;28;20031;-78
2021/06/18 05:14:50;;;;;;;17.05;13.55;;;512.00;2380.80;;;;;;5073194;28;20021;-78
2021/06/18 05:17:16;;;;;;;12.77;9.57;;;512.20;2380.80;;;;;;5073268;28;20095;-69
2021/06/18 05:19:42;;;;;;;8.93;5.75;;;512.40;2380.80;;;;;;5073124;28;20104;-74
2021/06/18 05:22:07;;;;;;;7.05;5.60;;;512.70;2380.80;;;;;;5073253;28;20033;-76
2021/06/18 05:24:33;;;;;;;8.52;5.75;;;512.80;2380.80;;;;;;5072861;28;20103;-78
2021/06/18 05:26:59;;;;;;;7.05;5.20;;;537.60;2406.40;;;;;;5073172;28;20021;-79
2021/06/18 05:29:25;;;;;;;8.13;5.53;;;537.70;2406.40;;;;;;5073058;28;20028;-72
2021/06/18 05:31:50;;;;;;;6.90;5.20;;;537.70;2406.40;;;;;;5069749;28;20020;-79
2021/06/18 05:34:16;;;;;;;8.48;5.68;;;537.60;2406.40;;;;;;5072097;28;20028;-78
2021/06/18 05:36:44;;;;;;;7.68;5.00;;;537.60;2406.40;;;;;;5072328;28;20054;-76
2021/06/18 05:39:15;;;;;;;6.32;5.05;;;537.90;2406.40;;;;;;5058356;28;20016;-79
2021/06/18 05:41:41;;;;;;;6.97;5.38;;;538.00;2406.40;;;;;;5055046;28;20025;-79
2021/06/18 05:44:07;;;;;;;6.90;5.53;;;538.50;2406.40;;;;;;5070749;28;20020;-78
2021/06/18 05:46:33;;;;;;;16.33;7.65;;;538.50;2406.40;;;;;;5073134;28;20031;-72
2021/06/18 05:48:59;;;;;;;7.97;5.43;;;563.50;2432.00;;;;;;5071840;28;20020;-72
2021/06/18 05:51:25;;;;;;;9.10;5.65;;;563.20;2432.00;;;;;;5072842;28;20025;-72
2021/06/18 05:53:52;;;;;;;7.70;5.40;;;563.20;2432.00;;;;;;5067698;28;20441;-74
2021/06/18 05:56:17;;;;;;;8.68;5.80;;;563.30;2432.00;;;;;;5072679;28;20107;-75
2021/06/18 05:58:43;;;;;;;6.80;5.38;;;563.50;2432.00;;;;;;5072420;28;20447;-79
2021/06/18 06:01:09;;;;;;;11.77;5.72;;;563.70;2432.00;;;;;;5071690;28;20024;-70
2021/06/18 06:03:34;;;;;;;9.35;5.20;;;563.70;2432.00;;;;;;5072453;28;20390;-74
2021/06/18 06:06:00;;;;;;;10.10;5.40;;;563.80;2432.00;;;;;;5072394;28;20042;-70
2021/06/18 06:08:28;;;;;;;6.03;5.20;;;564.00;2432.00;;;;;;5072601;28;20421;-70
2021/06/18 06:10:53;;;;;;;6.78;4.93;;;564.10;2432.00;;;;;;5072055;28;20119;-75
2021/06/18 06:13:20;;;;;;;7.25;5.28;;;564.10;2432.00;;;;;;5072378;28;20162;-70
2021/06/18 06:15:47;;;;;;;5.85;4.90;;;564.10;2432.00;;;;;;5072881;28;20021;-74
2021/06/18 06:18:14;;;;;;;6.75;5.18;;;588.90;2432.00;;;;;;5072087;28;20502;-70
2021/06/18 06:20:41;;;;;;;6.30;5.00;;;588.80;2432.00;;;;;;5072248;28;20488;-70
2021/06/18 06:23:06;;;;;;;5.80;5.00;;;589.00;2432.00;;;;;;5072116;28;20020;-75
2021/06/18 06:25:32;;;;;;;7.07;4.90;;;589.10;2432.00;;;;;;5072407;28;20035;-70
2021/06/18 06:27:58;;;;;;;6.80;4.97;;;589.50;2432.00;;;;;;5072246;28;20032;-72
2021/06/18 06:30:24;;;;;;;6.90;5.07;;;589.60;2432.00;;;;;;5072288;28;20356;-70
2021/06/18 06:32:49;;;;;;;6.20;4.90;;;614.70;2432.00;;;;;;5072398;28;20026;-70
2021/06/18 06:35:15;;;;;;;7.00;5.00;;;589.60;2432.00;;;;;;5059972;28;20067;-70
2021/06/18 06:37:42;;;;;;;9.85;5.05;;;589.40;2432.00;;;;;;5072297;28;20368;-70
2021/06/18 06:40:09;;;;;;;7.45;4.70;;;589.50;2432.00;;;;;;5072684;28;20060;-70
2021/06/18 06:42:35;;;;;;;7.78;5.30;;;614.40;2432.00;;;;;;5072441;28;20052;-70
2021/06/18 06:45:01;;;;;;;7.10;4.95;;;614.80;2432.00;;;;;;5072408;28;20482;-70
2021/06/18 06:47:27;;;;;;;7.40;5.25;;;614.50;2432.00;;;;;;5072457;28;20028;-70
2021/06/18 06:49:52;;;;;;;6.75;5.85;;;589.70;2432.00;;;;;;5072324;28;20470;-70
2021/06/18 06:52:19;;;;;;;6.32;5.35;;;589.60;2432.00;;;;;;5054035;28;20020;-70
2021/06/18 06:54:45;;;;;;;8.77;6.30;;;589.70;2432.00;;;;;;5072197;28;20487;-70
2021/06/18 06:57:11;;;;;;;7.82;6.28;;;614.50;2432.00;;;;;;5072196;28;20020;-70
2021/06/18 06:59:37;;;;;;;7.15;5.93;;;614.60;2432.00;;;;;;5071876;28;20025;-70
2021/06/18 07:02:03;;;;;;;7.00;6.05;;;615.00;2432.00;;;;;;5075314;28;20382;-70
2021/06/18 07:04:29;;;;;;;7.07;6.35;;;615.30;2432.00;;;;;;5076068;28;20075;-70
2021/06/18 07:06:55;;;;;;;7.15;6.20;;;640.00;2432.00;;;;;;5075733;28;20035;-73
2021/06/18 07:09:21;;;;;;;9.32;6.05;;;640.10;2432.00;;;;;;5075568;28;20016;-69
2021/06/18 07:11:47;;;;;;;8.50;6.70;;;640.10;2432.00;;;;;;5075528;28;20423;-70
2021/06/18 07:14:12;;;;;;;7.63;6.22;;;640.30;2432.00;;;;;;5075876;28;20021;-71
2021/06/18 07:16:38;;;;;;;7.05;6.30;;;640.70;2432.00;;;;;;5075637;28;20059;-70
2021/06/18 07:19:04;;;;;;;7.25;6.30;;;640.90;2432.00;;;;;;5076304;28;20020;-70
2021/06/18 07:21:30;;;;;;;6.90;6.20;;;665.60;2432.00;;;;;;5075920;28;20032;-70
2021/06/18 07:23:55;;;;;;;7.38;6.55;;;665.70;2432.00;;;;;;5075565;28;20278;-73
2021/06/18 07:26:21;;;;;;;10.95;7.32;;;665.70;2432.00;;;;;;5075093;28;20092;-70
2021/06/18 07:28:47;;;;;;;8.52;7.00;;;665.70;2432.00;;;;;;5075388;28;20039;-74
2021/06/18 07:31:12;;;;;;;7.95;6.55;;;640.70;2432.00;;;;;;5075117;28;20077;-70
2021/06/18 07:33:38;;;;;;;7.47;6.45;;;665.70;2432.00;;;;;;5074914;28;20043;-70
2021/06/18 07:36:04;;;;;;;8.20;6.93;;;665.90;2432.00;;;;;;5062962;28;20016;-71
2021/06/18 07:38:30;;;;;;;12.15;6.90;;;666.10;2432.00;;;;;;5075066;28;20028;-74
2021/06/18 07:40:55;;;;;;;8.55;6.60;;;691.30;2432.00;;;;;;5075274;28;20020;-71
2021/06/18 07:43:21;;;;;;;8.27;6.70;;;691.70;2432.00;;;;;;5075524;28;20079;-70
2021/06/18 07:45:47;;;;;;;9.10;6.72;;;691.30;2432.00;;;;;;5075509;28;20029;-75
2021/06/18 07:48:13;;;;;;;8.90;7.00;;;691.30;2432.00;;;;;;5057404;28;20474;-70
2021/06/18 07:50:40;;;;;;;7.07;6.38;;;691.90;2432.00;;;;;;5074984;28;20025;-74
2021/06/18 07:53:06;;;;;;;8.07;6.53;;;717.20;2432.00;;;;;;5074823;28;20017;-70
2021/06/18 07:55:32;;;;;;;8.65;6.63;;;717.40;2432.00;;;;;;5074733;28;20553;-70
2021/06/18 07:57:58;;;;;;;9.95;6.85;;;692.10;2432.00;;;;;;5075119;28;20024;-70
2021/06/18 08:00:24;;;;;;;7.80;6.55;;;691.90;2432.00;;;;;;5074767;28;20403;-70
2021/06/18 08:02:51;;;;;;;7.70;6.90;;;716.90;2432.00;;;;;;5074297;28;20210;-74
2021/06/18 08:05:17;;;;;;;8.65;6.45;;;692.10;2432.00;;;;;;5074608;28;20443;-70
2021/06/18 08:07:45;;;;;;;7.88;6.10;;;692.00;2432.00;;;;;;5074387;28;20490;-79
2021/06/18 08:10:13;;;;;;;6.72;6.03;;;692.00;2432.00;;;;;;5074126;28;20087;-80
2021/06/18 08:12:40;;;;;;;7.80;6.47;;;717.00;2432.00;;;;;;5073147;28;20016;-71
2021/06/18 08:15:07;;;;;;;8.15;6.38;;;717.40;2432.00;;;;;;5074266;28;20021;-71
2021/06/18 08:17:34;;;;;;;7.65;6.45;;;742.60;2432.00;;;;;;5074518;28;20079;-72
2021/06/18 08:20:00;;;;;;;7.45;6.60;;;742.70;2432.00;;;;;;5074008;28;20555;-70
2021/06/18 08:22:26;;;;;;;9.27;6.40;;;742.60;2432.00;;;;;;5074020;28;20021;-77
2021/06/18 08:24:52;;;;;;;8.82;6.45;;;743.20;2432.00;;;;;;5074168;28;20020;-75
2021/06/18 08:27:17;;;;;;;8.52;6.57;;;768.40;2432.00;;;;;;5074083;28;20024;-74
2021/06/18 08:29:43;;;;;;;9.98;6.30;;;743.30;2432.00;;;;;;5073958;28;20547;-76
2021/06/18 08:32:09;;;;;;;8.73;6.30;;;768.50;2432.00;;;;;;5073887;28;20048;-74
2021/06/18 08:34:35;;;;;;;8.80;6.43;;;768.50;2432.00;;;;;;5066525;28;20497;-71
2021/06/18 08:37:01;;;;;;;7.45;6.05;;;;;;;;;;5069902;28;20380;-73
2021/06/18 08:39:27;;;;;;;7.82;6.22;;;768.60;2432.00;;;;;;5071163;28;20029;-73
2021/06/18 08:41:53;;;;;;;9.32;6.03;;;;;;;;;;5073910;28;20035;-75
2021/06/18 08:44:20;;;;;;;7.13;5.88;;;;;;;;;;5074100;28;20020;-70
2021/06/18 08:46:46;;;;;;;7.28;6.30;;;;;;;;;;5074056;28;20024;-76
2021/06/18 08:49:12;;;;;;;8.88;6.20;;;;;;;;;;5071896;28;20021;-70
2021/06/18 08:51:39;;;;;;;8.95;5.93;;;;;;;;;;5056017;28;20383;-76
2021/06/18 08:54:05;;;;;;;8.98;6.30;;;;;;;;;;5066075;28;20058;-73
2021/06/18 08:56:31;;;;;;;9.23;6.10;;;;;;;;;;5073594;28;20024;-78
2021/06/18 08:58:57;;;;;;;6.78;5.97;;;;;;;;;;5073199;28;20036;-75
2021/06/18 09:01:24;;;;;;;7.47;5.78;;;;;;;;;;5073572;28;20032;-80
2021/06/18 09:03:51;;;;;;;9.02;5.85;;;794.20;2432.00;;;;;;5072722;28;20075;-74
2021/06/18 09:06:31;;;;;;;8.55;6.53;;;844.90;2355.20;;;;;;5073213;28;20028;-70
2021/06/18 09:09:16;;;;;;;8.57;6.10;;;844.90;2355.20;;;;;;5073721;28;20017;-70
2021/06/18 09:11:44;;;;;;;8.55;5.60;;;844.90;2380.80;;;;;;5060329;28;20044;-69
2021/06/18 09:14:42;;;;;;;6.68;5.97;;;845.10;2380.80;;;;;;5065824;28;20082;-71
2021/06/18 09:17:16;;;;;;;8.05;5.80;;;;;;;;;;5017174;28;20041;-71
2021/06/18 09:19:45;;;;;;;9.85;5.63;;;;;;;;;;5070138;28;20028;-79
2021/06/18 09:22:16;;;;;;;8.63;5.90;;;;;;;;;;5053957;28;20083;-81
2021/06/18 09:24:48;;;;;;;6.75;5.63;;;845.20;2380.80;;;;;;5057061;28;20072;-76
2021/06/18 09:27:14;;;;;;;6.47;5.70;;;845.70;2252.80;;;;;;5055551;28;20031;-71
2021/06/18 09:29:42;;;;;;;9.25;5.70;;;845.70;2227.20;;;;;;5068041;28;20081;-79
2021/06/18 09:32:11;;;;;;;8.85;5.45;;;845.70;2201.60;;;;;;5067509;28;20020;-78
2021/06/18 09:37:18;;;;;;;6.22;5.35;;;;;;;;;;5067923;28;20021;-74
2021/06/18 09:39:58;;;;;;;5.95;5.35;;;;;;;;;;5067668;28;20017;-76
2021/06/18 09:42:24;;;;;;;7.88;5.80;;;870.60;2176.00;;;;;;5066964;28;20036;-76
2021/06/18 09:45:06;;;;;;;8.55;5.57;;;870.60;2176.00;;;;;;5061173;28;20044;-73
2021/06/18 09:47:34;;;;;;;7.63;5.30;;;;;;;;;;5055043;28;20045;-79
2021/06/18 09:50:00;;;;;;;6.68;5.38;;;;;;;;;;5058261;28;20044;-74
2021/06/18 09:52:26;;;;;;;6.65;5.70;;;;;;;;;;5068523;28;20360;-71
2021/06/18 09:54:53;;;;;;;6.65;5.07;;;;;;;;;;5072727;28;20032;-72
2021/06/18 09:57:21;;;;;;;7.95;5.90;;;;;;;;;;5072316;28;20036;-74
2021/06/18 09:59:48;;;;;;;6.55;5.75;;;;;;;;;;5071919;28;20036;-73
2021/06/18 10:02:14;;;;;;;9.40;5.90;;;;;;;;;;5071659;28;20029;-71
2021/06/18 10:04:41;;;;;;;11.35;6.45;;;;;;;;;;5072010;28;20035;-75
2021/06/18 10:07:10;;;;;;;6.55;5.65;;;;;;;;;;5072447;28;20025;-78
2021/06/18 10:09:39;;;;;;;6.93;5.90;;;870.50;2150.40;;;;;;5071235;28;20360;-75
2021/06/18 10:12:07;;;;;;;6.60;5.88;;;870.70;2124.80;;;;;;5069003;28;20038;-70
2021/06/18 10:14:33;;;;;;;9.07;5.60;;;870.50;2124.80;;;;;;5071438;28;20501;-74
2021/06/18 10:17:00;;;;;;;7.80;5.70;;;870.60;2124.80;;;;;;5053733;28;20053;-72
2021/06/18 10:19:27;;;;;;;6.45;5.75;;;870.50;2124.80;;;;;;5071514;28;20131;-70
2021/06/18 10:22:05;;;;;;;7.20;5.72;;;870.70;2099.20;;;;;;5070346;28;20067;-75
2021/06/18 10:25:03;;;;;;;6.95;5.60;;;870.80;2073.60;;;;;;5071958;28;20036;-77
2021/06/18 10:27:44;;;;;;;8.27;5.85;;;870.80;2048.00;;;;;;5071777;28;20036;-76
2021/06/18 10:30:35;;;;;;;9.73;5.93;;;870.80;2048.00;;;;;;5072044;28;20491;-77
2021/06/18 10:33:24;;;;;;;6.13;5.50;;;871.10;2073.60;;;;;;5071742;28;20024;-79
2021/06/18 10:35:59;;;;;;;9.82;5.70;;;871.10;2022.40;;;;;;5063527;28;20051;-81
2021/06/18 10:38:30;;;;;;;7.82;5.60;;;871.20;1996.80;;;;;;5076458;28;20030;-79
2021/06/18 10:41:00;;;;;;;9.02;5.75;;;871.20;2022.40;;;;;;5076251;28;20028;-71
2021/06/18 10:43:47;;;;;;;6.33;5.43;;;896.00;2022.40;;;;;;5076281;28;20115;-75
2021/06/18 10:46:17;;;;;;;6.38;5.20;;;896.50;1945.60;;;;;;5076211;28;20020;-79
2021/06/18 10:48:51;;;;;;;6.30;4.93;;;896.60;1971.20;;;;;;5076338;28;20048;-83
2021/06/18 10:51:26;;;;;;;8.05;5.05;;;896.50;1894.40;;;;;;5063082;28;20028;-73
2021/06/18 10:54:12;;;;;;;6.80;5.13;;;896.10;1894.40;;;;;;5076277;28;20043;-74
2021/06/18 10:56:44;;;;;;;8.88;5.03;;;896.00;1894.40;;;;;;5058441;28;20024;-79
2021/06/18 10:59:11;;;;;;;6.75;4.70;;;896.00;1920.00;;;;;;5075892;28;20038;-77
2021/06/18 11:01:37;;;;;;;6.65;4.75;;;871.30;1894.40;;;;;;5075971;28;20471;-76
2021/06/18 11:04:04;;;;;;;7.88;5.20;;;896.10;1920.00;;;;;;5076051;28;20033;-74
2021/06/18 11:06:50;;;;;;;7.35;5.10;;;896.10;1920.00;;;;;;5076069;28;20025;-70
2021/06/18 11:09:40;;;;;;;6.00;4.78;;;896.20;1920.00;;;;;;5075686;28;20071;-71
2021/06/18 11:12:32;;;;;;;8.05;5.18;;;896.40;1894.40;;;;;;5075804;28;20395;-76
2021/06/18 11:15:20;;;;;;;7.70;5.00;;;896.60;1894.40;;;;;;5072818;28;20120;-71
2021/06/18 11:18:19;;;;;;;7.72;4.40;;;896.30;1843.20;;;;;;5065759;28;20040;-74
2021/06/18 11:20:49;;;;;;;5.18;4.28;;;896.60;1817.60;;;;;;5070846;28;20045;-76
2021/06/18 11:23:20;;;;;;;6.40;4.30;;;896.50;1843.20;;;;;;5075328;28;20016;-72
2021/06/18 11:26:03;;;;;;;5.75;4.13;;;896.80;1792.00;;;;;;5075470;28;20020;-74
2021/06/18 11:28:35;;;;;;;7.78;4.25;;;896.90;1792.00;;;;;;5075416;28;20092;-72
2021/06/18 11:31:38;;;;;;;6.15;4.32;;;921.70;1792.00;;;;;;5075372;28;20031;-73
2021/06/18 11:34:04;;;;;;;6.82;4.97;;;921.90;1792.00;;;;;;5043794;28;20093;-72
2021/06/18 11:36:35;;;;;;;6.20;5.10;;;921.90;1817.60;;;;;;5075454;28;20025;-73
2021/06/18 11:39:03;;;;;;;8.02;4.82;;;921.90;1817.60;;;;;;5075226;28;20040;-74
2021/06/18 11:41:37;;;;;;;6.63;4.60;;;921.80;1817.60;;;;;;5075230;28;20095;-76
2021/06/18 11:44:04;;;;;;;6.13;4.80;;;921.70;1792.00;;;;;;5074994;28;20021;-75
2021/06/18 11:46:32;;;;;;;5.72;4.90;;;896.90;1792.00;;;;;;5074761;28;20024;-71
2021/06/18 11:49:30;;;;;;;7.05;4.82;;;921.60;1817.60;;;;;;5074006;28;20028;-71
2021/06/18 11:52:04;;;;;;;5.70;4.70;;;921.70;1792.00;;;;;;5063077;28;20111;-72
2021/06/18 11:54:35;;;;;;;5.75;4.93;;;896.90;1792.00;;;;;;5074830;28;20031;-75
2021/06/18 11:57:07;;;;;;;6.22;5.63;;;896.50;1843.20;;;;;;5074840;28;20040;-76
2021/06/18 11:59:33;;;;;;;8.05;5.72;;;871.30;1843.20;;;;;;5074727;28;20437;-77
2021/06/18 12:02:16;;;;;;;8.48;5.28;;;871.10;1843.20;;;;;;5075202;28;20024;-72
2021/06/18 12:04:42;;;;;;;6.65;4.90;;;870.70;1868.80;;;;;;5074858;28;20024;-71
2021/06/18 12:07:07;;;;;;;8.15;5.40;;;870.50;1894.40;;;;;;5075033;28;20053;-69
2021/06/18 12:09:41;;;;;;;7.30;5.35;;;870.70;1894.40;;;;;;5074594;28;20028;-70
2021/06/18 12:12:08;;;;;;;7.70;4.90;;;870.60;1894.40;;;;;;5074732;28;20029;-70
2021/06/18 12:14:45;;;;;;;5.32;4.80;;;870.60;1894.40;;;;;;5074755;28;20029;-72
2021/06/18 12:17:10;;;;;;;6.63;5.28;;;870.60;1894.40;;;;;;5074853;28;20514;-72
2021/06/18 12:19:44;;;;;;;6.18;5.00;;;870.40;1894.40;;;;;;5074451;28;20108;-72
2021/06/18 12:22:12;;;;;;;7.40;4.82;;;870.40;1894.40;;;;;;5074824;28;20039;-72
2021/06/18 12:24:39;;;;;;;6.88;5.00;;;845.40;1920.00;;;;;;5074325;28;20548;-71
2021/06/18 12:27:15;;;;;;;6.70;5.10;;;845.40;1945.60;;;;;;5074642;28;20028;-71
2021/06/18 12:29:52;;;;;;;5.47;4.75;;;845.50;1945.60;;;;;;5074274;28;20482;-70
2021/06/18 12:32:18;;;;;;;7.00;4.72;;;845.60;1920.00;;;;;;5074496;28;20095;-72
2021/06/18 12:34:52;;;;;;;6.32;4.70;;;845.50;1894.40;;;;;;5074237;28;20532;-70
2021/06/18 12:37:21;;;;;;;7.45;4.75;;;845.70;1894.40;;;;;;5073955;28;20028;-70